Waltham Station, Canada
Current Conditions -  °F | °C
As of 11:00 AM on Tuesday 21 Oct 2014 (Local Time) from CYWA Reporting Station
Overcast Overcast  
Wind Chill: 34°   Ceiling: 1400
Heat Index: 41°   Visibility: 9mi
Dew Point: 34°   Wind: 12mph
Humidity: 76%   Direction: 30°NNE
Pressure: 30.05"   Gusts: NA
Location:  45.91°N, 76.89°W
Report Text: CYWA 211500Z AUTO 03010KT 9SM OVC014 OVC026 05/01 A3005 RMKPCPN 0.5MM PAST HR SLP181
Loading
Personal Weather Stations






























Interactive Weather Map
Tropical Storm Tracking
New forecast layout! Learn more

10-Day Weather Forecast

Advertisements
Track Severe Weather on mobile